createdAt,value
2023-03-12T00:01:50.188Z,-0.25
2023-03-12T00:04:36.367Z,-0.30
2023-03-12T00:07:21.956Z,-0.17
2023-03-12T00:10:07.936Z,-0.14
2023-03-12T00:12:53.582Z,-0.32
2023-03-12T00:15:39.594Z,-1.59
2023-03-12T00:18:25.295Z,-0.52
2023-03-12T00:21:11.079Z,-0.10
2023-03-12T00:23:56.976Z,-0.14
2023-03-12T00:26:42.778Z,-1.59
2023-03-12T00:29:28.566Z,-0.10
2023-03-12T00:32:14.520Z,-0.50
2023-03-12T00:34:59.790Z,-0.48
2023-03-12T00:37:45.154Z,-0.44
2023-03-12T00:40:30.697Z,-0.55
2023-03-12T00:43:15.945Z,-0.22
2023-03-12T00:46:01.423Z,-0.49
2023-03-12T00:48:46.868Z,-1.63
2023-03-12T00:51:32.239Z,-1.65
2023-03-12T00:54:17.858Z,-1.33
2023-03-12T00:57:03.519Z,-1.42
2023-03-12T00:59:48.845Z,-1.02
2023-03-12T01:02:34.104Z,-1.74
2023-03-12T01:05:19.648Z,-0.96
2023-03-12T01:08:07.267Z,-1.77
2023-03-12T01:10:52.792Z,-0.37
2023-03-12T01:13:38.481Z,-1.63
2023-03-12T01:16:28.086Z,-1.50
2023-03-12T01:19:13.688Z,-0.39
2023-03-12T01:21:59.027Z,-0.84
2023-03-12T01:24:44.505Z,-1.34
2023-03-12T01:27:29.834Z,-0.71
2023-03-12T01:30:15.412Z,-1.97
2023-03-12T01:33:00.991Z,-1.63
2023-03-12T01:35:46.536Z,-1.62
2023-03-12T01:38:32.535Z,-0.56
2023-03-12T01:41:18.766Z,-0.72
2023-03-12T01:44:05.323Z,-1.88
2023-03-12T01:46:51.084Z,-0.72
2023-03-12T01:49:41.569Z,-1.96
2023-03-12T01:52:35.088Z,-1.15
2023-03-12T01:55:20.775Z,-1.98
2023-03-12T01:58:07.951Z,-1.94
2023-03-12T02:00:53.856Z,-0.41
2023-03-12T02:03:39.905Z,-0.40
2023-03-12T02:06:53.676Z,-0.39
2023-03-12T02:09:43.014Z,-0.42
2023-03-12T02:12:28.550Z,-0.48
2023-03-12T02:15:14.118Z,-1.83
2023-03-12T02:17:59.892Z,-1.12
2023-03-12T02:21:20.270Z,-0.56
2023-03-12T02:24:32.077Z,-0.65
2023-03-12T02:27:19.278Z,-2.27
2023-03-12T02:30:05.580Z,-0.94
2023-03-12T02:32:52.228Z,-1.30
2023-03-12T02:35:38.474Z,-1.88
2023-03-12T02:38:45.295Z,-1.34
2023-03-12T02:41:38.330Z,-0.73
2023-03-12T02:44:33.428Z,-1.88
2023-03-12T02:47:19.723Z,-1.42
2023-03-12T02:50:05.762Z,-5.15
2023-03-12T02:52:51.622Z,-1.15
2023-03-12T02:55:37.317Z,-1.11
2023-03-12T02:58:22.672Z,-0.75
2023-03-12T03:01:08.195Z,-0.93
2023-03-12T03:03:54.571Z,-1.28
2023-03-12T03:06:43.799Z,-0.83
2023-03-12T03:09:30.015Z,-0.80
2023-03-12T03:12:16.132Z,-2.41
2023-03-12T03:15:01.749Z,-0.69
2023-03-12T03:17:47.472Z,-2.18
2023-03-12T03:20:32.904Z,-1.66
2023-03-12T03:23:18.262Z,-0.68
2023-03-12T03:26:03.867Z,-0.66
2023-03-12T03:28:50.550Z,-2.04
2023-03-12T03:31:36.279Z,-0.96
2023-03-12T03:34:21.969Z,-2.20
2023-03-12T03:37:07.644Z,-0.76
2023-03-12T03:39:54.495Z,-0.73
2023-03-12T03:42:40.467Z,-0.96
2023-03-12T03:45:27.537Z,-0.75
2023-03-12T03:48:15.041Z,-1.69
2023-03-12T03:51:06.139Z,-1.78
2023-03-12T03:53:54.069Z,-1.46
2023-03-12T03:56:40.887Z,-0.68
2023-03-12T03:59:27.128Z,-1.01
2023-03-12T04:02:12.540Z,-1.03
2023-03-12T04:04:59.957Z,-0.87
2023-03-12T04:07:46.801Z,-1.84
2023-03-12T04:10:33.895Z,-0.60
2023-03-12T04:13:19.939Z,-1.26
2023-03-12T04:16:06.410Z,-0.58
2023-03-12T04:18:51.988Z,-0.62
2023-03-12T04:21:39.687Z,-0.70
2023-03-12T04:24:26.386Z,-1.01
2023-03-12T04:27:12.050Z,-0.67
2023-03-12T04:29:59.126Z,-1.95
2023-03-12T04:32:44.667Z,-1.89
2023-03-12T04:35:30.758Z,-2.17
2023-03-12T04:38:16.724Z,-0.73
2023-03-12T04:41:06.027Z,-1.28
2023-03-12T04:43:52.014Z,-0.72
2023-03-12T04:46:39.175Z,-0.75
2023-03-12T04:49:25.023Z,-0.75
2023-03-12T04:52:12.601Z,-1.11
2023-03-12T04:55:00.441Z,-0.85
2023-03-12T04:57:46.047Z,-0.82
2023-03-12T05:00:31.944Z,-2.33
2023-03-12T05:03:18.254Z,-0.86
2023-03-12T05:06:05.298Z,-0.83
2023-03-12T05:08:51.418Z,-1.34
2023-03-12T05:11:39.580Z,-2.08
2023-03-12T05:14:28.146Z,-0.77
2023-03-12T05:17:13.640Z,-0.82
2023-03-12T05:19:59.708Z,-0.96
2023-03-12T05:22:45.744Z,-0.79
2023-03-12T05:25:31.969Z,-0.84
2023-03-12T05:28:18.036Z,-0.79
2023-03-12T05:31:10.117Z,-0.69
2023-03-12T05:33:56.116Z,-2.25
2023-03-12T05:36:41.948Z,-0.71
2023-03-12T05:39:28.350Z,-2.10
2023-03-12T05:42:17.755Z,-0.60
2023-03-12T05:45:05.520Z,-0.73
2023-03-12T05:47:51.793Z,-2.06
2023-03-12T05:50:37.859Z,-1.55
2023-03-12T05:53:24.147Z,-1.27
2023-03-12T05:56:13.868Z,-0.74
2023-03-12T05:58:59.485Z,-1.72
2023-03-12T06:01:45.119Z,-0.94
2023-03-12T06:04:31.067Z,-0.61
2023-03-12T06:07:16.437Z,-0.53
2023-03-12T06:10:01.769Z,-0.67
2023-03-12T06:12:47.077Z,-0.58
2023-03-12T06:15:32.783Z,-0.37
2023-03-12T06:18:18.863Z,-1.74
2023-03-12T06:21:09.019Z,-0.39
2023-03-12T06:23:55.230Z,-0.26
2023-03-12T06:26:48.355Z,-0.53
2023-03-12T06:29:33.861Z,-0.59
2023-03-12T06:32:19.377Z,-1.70
2023-03-12T06:35:05.846Z,-0.20
2023-03-12T06:37:51.932Z,-0.55
2023-03-12T06:40:37.973Z,-0.42
2023-03-12T06:43:24.328Z,-1.17
2023-03-12T06:46:13.993Z,-0.68
2023-03-12T06:48:59.477Z,-0.50
2023-03-12T06:51:45.087Z,-1.11
2023-03-12T06:54:30.992Z,0.33
2023-03-12T06:57:16.743Z,0.25
2023-03-12T07:00:02.249Z,-1.59
2023-03-12T07:02:47.712Z,0.51
2023-03-12T07:05:33.644Z,0.75
2023-03-12T07:08:19.116Z,0.10
2023-03-12T07:11:04.840Z,0.89
2023-03-12T07:13:51.618Z,0.38
2023-03-12T07:16:37.850Z,1.19
2023-03-12T07:19:23.225Z,1.12
2023-03-12T07:22:08.664Z,1.48
2023-03-12T07:24:54.482Z,1.37
2023-03-12T07:27:40.838Z,1.72
2023-03-12T07:30:26.354Z,0.48
2023-03-12T07:33:12.928Z,2.03
2023-03-12T07:35:59.173Z,2.27
2023-03-12T07:38:44.967Z,0.83
2023-03-12T07:41:31.325Z,2.31
2023-03-12T07:44:16.774Z,2.36
2023-03-12T07:47:16.599Z,2.51
2023-03-12T07:50:08.316Z,1.47
2023-03-12T07:52:53.914Z,1.22
2023-03-12T07:55:39.322Z,2.58
2023-03-12T07:58:25.193Z,2.55
2023-03-12T08:01:10.928Z,2.42
2023-03-12T08:03:56.882Z,2.07
2023-03-12T08:06:45.109Z,1.96
2023-03-12T08:09:30.930Z,0.61
2023-03-12T08:12:17.220Z,1.26
2023-03-12T08:15:06.680Z,1.06
2023-03-12T08:17:52.343Z,2.07
2023-03-12T08:20:38.820Z,1.08
2023-03-12T08:23:24.968Z,2.25
2023-03-12T08:26:10.961Z,1.07
2023-03-12T08:28:57.805Z,2.15
2023-03-12T08:32:01.610Z,2.39
2023-03-12T08:34:50.163Z,2.50
2023-03-12T08:37:37.748Z,2.58
2023-03-12T08:40:26.405Z,2.65
2023-03-12T08:43:16.569Z,1.73
2023-03-12T08:46:03.532Z,2.68
2023-03-12T08:48:48.991Z,2.80
2023-03-12T08:51:34.586Z,3.00
2023-03-12T08:54:20.885Z,2.95
2023-03-12T08:57:06.768Z,3.07
2023-03-12T08:59:52.114Z,2.67
2023-03-12T09:02:38.821Z,2.98
2023-03-12T09:05:25.396Z,2.86
2023-03-12T09:08:11.961Z,2.98
2023-03-12T09:10:57.551Z,3.18
2023-03-12T09:14:02.797Z,3.08
2023-03-12T09:16:49.718Z,2.91
2023-03-12T09:19:34.976Z,2.13
2023-03-12T09:22:22.055Z,2.82
2023-03-12T09:25:17.553Z,2.76
2023-03-12T09:28:07.291Z,2.66
2023-03-12T09:30:53.644Z,2.13
2023-03-12T09:33:39.278Z,2.59
2023-03-12T09:36:25.000Z,1.98
2023-03-12T09:39:10.863Z,2.33
2023-03-12T09:41:56.579Z,2.54
2023-03-12T09:44:47.080Z,2.65
2023-03-12T09:47:38.204Z,2.64
2023-03-12T09:50:34.862Z,2.81
2023-03-12T09:53:44.379Z,2.90
2023-03-12T09:56:30.264Z,1.54
2023-03-12T09:59:15.658Z,1.59
2023-03-12T10:02:15.719Z,3.06
2023-03-12T10:05:27.626Z,3.21
2023-03-12T10:08:35.927Z,3.35
2023-03-12T10:11:40.069Z,3.48
2023-03-12T10:14:51.801Z,3.58
2023-03-12T10:17:55.870Z,3.78
2023-03-12T10:21:02.740Z,3.83
2023-03-12T10:24:01.383Z,3.80
2023-03-12T10:26:50.736Z,3.22
2023-03-12T10:29:43.363Z,3.33
2023-03-12T10:32:40.646Z,2.35
2023-03-12T10:35:30.559Z,3.50
2023-03-12T10:38:20.259Z,2.12
2023-03-12T10:41:15.319Z,2.95
2023-03-12T10:44:07.641Z,3.35
2023-03-12T10:47:06.883Z,2.79
2023-03-12T10:49:53.435Z,3.48
2023-03-12T10:52:39.165Z,2.87
2023-03-12T10:55:26.883Z,3.51
2023-03-12T10:58:24.062Z,3.53
2023-03-12T11:01:23.297Z,3.22
2023-03-12T11:04:16.914Z,2.67
2023-03-12T11:07:28.629Z,3.48
2023-03-12T11:10:20.783Z,2.27
2023-03-12T11:13:31.200Z,3.38
2023-03-12T11:16:16.696Z,3.68
2023-03-12T11:19:04.689Z,2.62
2023-03-12T11:22:02.534Z,3.67
2023-03-12T11:25:04.358Z,3.65
2023-03-12T11:27:54.146Z,3.05
2023-03-12T11:30:40.838Z,2.66
2023-03-12T11:33:26.693Z,3.65
2023-03-12T11:36:23.082Z,2.30
2023-03-12T11:39:26.734Z,3.67
2023-03-12T11:42:31.127Z,2.34
2023-03-12T11:45:58.502Z,3.64
2023-03-12T11:48:50.461Z,3.16
2023-03-12T11:52:00.681Z,3.57
2023-03-12T11:55:16.511Z,3.52
2023-03-12T11:58:25.066Z,3.44
2023-03-12T12:02:03.108Z,3.21
2023-03-12T12:05:01.585Z,3.51
2023-03-12T12:08:11.486Z,3.00
2023-03-12T12:11:05.581Z,3.29
2023-03-12T12:14:32.034Z,3.59
2023-03-12T12:17:25.391Z,3.64
2023-03-12T12:20:42.825Z,3.72
2023-03-12T12:24:08.020Z,3.48
2023-03-12T12:27:27.907Z,2.96
2023-03-12T12:30:38.126Z,4.01
2023-03-12T12:33:23.889Z,4.04
2023-03-12T12:36:10.834Z,3.36
2023-03-12T12:39:06.169Z,3.20
2023-03-12T12:41:54.848Z,4.12
2023-03-12T12:44:48.889Z,4.15
2023-03-12T12:47:57.110Z,4.19
2023-03-12T12:50:44.594Z,3.98
2023-03-12T12:53:38.675Z,3.10
2023-03-12T12:56:33.087Z,4.50
2023-03-12T12:59:34.902Z,4.58
2023-03-12T13:02:26.307Z,4.74
2023-03-12T13:05:36.842Z,4.80
2023-03-12T13:08:37.417Z,4.84
2023-03-12T13:11:24.985Z,4.66
2023-03-12T13:14:10.759Z,4.92
2023-03-12T13:17:07.624Z,3.89
2023-03-12T13:20:01.747Z,5.02
2023-03-12T13:23:01.665Z,5.04
2023-03-12T13:25:47.564Z,5.06
2023-03-12T13:29:11.375Z,5.09
2023-03-12T13:31:57.905Z,4.06
2023-03-12T13:34:46.255Z,4.90
2023-03-12T13:37:48.761Z,5.24
2023-03-12T13:40:55.960Z,4.88
2023-03-12T13:43:48.971Z,5.16
2023-03-12T13:46:40.500Z,4.53
2023-03-12T13:49:28.906Z,4.24
2023-03-12T13:52:14.469Z,4.89
2023-03-12T13:55:07.293Z,4.81
2023-03-12T13:58:08.924Z,4.58
2023-03-12T14:01:03.969Z,3.13
2023-03-12T14:03:55.507Z,4.58
2023-03-12T14:07:18.701Z,4.59
2023-03-12T14:10:38.198Z,4.50
2023-03-12T14:13:58.139Z,4.47
2023-03-12T14:16:49.901Z,3.91
2023-03-12T14:19:46.161Z,3.63
2023-03-12T14:22:35.666Z,4.42
2023-03-12T14:25:39.759Z,4.44
2023-03-12T14:28:26.104Z,4.10
2023-03-12T14:31:16.855Z,4.50
2023-03-12T14:34:17.629Z,4.43
2023-03-12T14:37:42.972Z,4.51
2023-03-12T14:40:46.965Z,4.53
2023-03-12T14:43:35.192Z,4.24
2023-03-12T14:46:23.053Z,4.48
2023-03-12T14:49:19.696Z,4.51
2023-03-12T14:52:05.981Z,3.11
2023-03-12T14:55:01.062Z,4.46
2023-03-12T14:57:46.852Z,4.19
2023-03-12T15:00:33.477Z,4.03
2023-03-12T15:03:18.746Z,4.08
2023-03-12T15:06:04.223Z,3.36
2023-03-12T15:08:50.542Z,4.41
2023-03-12T15:11:37.752Z,4.38
2023-03-12T15:14:25.179Z,4.27
2023-03-12T15:17:20.072Z,3.16
2023-03-12T15:20:09.392Z,4.27
2023-03-12T15:22:56.663Z,3.95
2023-03-12T15:25:46.218Z,3.65
2023-03-12T15:28:31.897Z,4.17
2023-03-12T15:31:17.342Z,4.24
2023-03-12T15:34:05.979Z,4.25
2023-03-12T15:36:51.837Z,2.78
2023-03-12T15:39:38.422Z,4.22
2023-03-12T15:42:26.814Z,4.13
2023-03-12T15:45:22.483Z,3.61
2023-03-12T15:48:26.750Z,3.36
2023-03-12T15:51:28.419Z,3.10
2023-03-12T15:54:14.112Z,4.16
2023-03-12T15:57:19.904Z,4.12
2023-03-12T16:00:14.434Z,4.11
2023-03-12T16:03:03.960Z,3.68
2023-03-12T16:05:50.619Z,4.00
2023-03-12T16:08:45.576Z,3.77
2023-03-12T16:11:33.490Z,3.76
2023-03-12T16:14:22.935Z,2.88
2023-03-12T16:17:14.850Z,2.66
2023-03-12T16:20:00.536Z,3.50
2023-03-12T16:22:46.184Z,3.95
2023-03-12T16:25:31.936Z,3.80
2023-03-12T16:28:19.644Z,3.82
2023-03-12T16:31:12.199Z,2.41
2023-03-12T16:33:58.219Z,2.64
2023-03-12T16:36:43.683Z,3.65
2023-03-12T16:39:33.832Z,3.73
2023-03-12T16:42:23.338Z,3.66
2023-03-12T16:45:13.813Z,3.47
2023-03-12T16:48:05.538Z,3.81
2023-03-12T16:50:54.104Z,2.31
2023-03-12T16:53:41.298Z,3.88
2023-03-12T16:56:35.305Z,3.22
2023-03-12T16:59:27.646Z,3.27
2023-03-12T17:02:18.126Z,3.24
2023-03-12T17:05:04.251Z,2.14
2023-03-12T17:07:49.644Z,3.41
2023-03-12T17:10:35.072Z,3.59
2023-03-12T17:13:26.291Z,3.61
2023-03-12T17:16:13.511Z,3.33
2023-03-12T17:18:59.437Z,2.89
2023-03-12T17:21:45.746Z,2.30
2023-03-12T17:24:32.928Z,3.58
2023-03-12T17:27:19.961Z,3.54
2023-03-12T17:30:05.717Z,3.53
2023-03-12T17:32:52.037Z,2.44
2023-03-12T17:35:37.613Z,3.20
2023-03-12T17:38:23.164Z,3.45
2023-03-12T17:41:23.424Z,3.40
2023-03-12T17:44:11.785Z,3.20
2023-03-12T17:46:59.618Z,2.44
2023-03-12T17:49:45.590Z,3.29
2023-03-12T17:52:32.183Z,2.96
2023-03-12T17:55:17.735Z,3.31
2023-03-12T17:58:06.072Z,2.90
2023-03-12T18:00:51.434Z,2.00
2023-03-12T18:03:37.159Z,2.30
2023-03-12T18:06:22.535Z,3.20
2023-03-12T18:09:08.521Z,2.90
2023-03-12T18:11:55.477Z,3.32
2023-03-12T18:14:41.623Z,3.31
2023-03-12T18:17:27.264Z,2.92
2023-03-12T18:20:19.559Z,2.15
2023-03-12T18:23:08.792Z,3.09
2023-03-12T18:25:54.351Z,1.54
2023-03-12T18:28:39.721Z,3.04
2023-03-12T18:31:25.183Z,2.84
2023-03-12T18:34:10.648Z,1.62
2023-03-12T18:36:56.208Z,1.57
2023-03-12T18:39:41.548Z,1.86
2023-03-12T18:42:27.000Z,1.68
2023-03-12T18:45:12.895Z,2.63
2023-03-12T18:47:58.414Z,2.51
2023-03-12T18:50:44.054Z,2.24
2023-03-12T18:53:29.598Z,2.45
2023-03-12T18:56:15.671Z,2.28
2023-03-12T18:59:01.107Z,2.56
2023-03-12T19:01:47.254Z,1.49
2023-03-12T19:04:33.873Z,2.64
2023-03-12T19:07:19.843Z,2.65
2023-03-12T19:10:07.020Z,1.51
2023-03-12T19:12:54.167Z,2.45
2023-03-12T19:15:39.749Z,2.70
2023-03-12T19:18:25.626Z,2.60
2023-03-12T19:21:11.276Z,2.15
2023-03-12T19:23:57.075Z,2.65
2023-03-12T19:26:42.654Z,2.33
2023-03-12T19:29:28.505Z,2.58
2023-03-12T19:32:14.773Z,2.57
2023-03-12T19:35:01.460Z,2.49
2023-03-12T19:37:46.687Z,2.32
2023-03-12T19:40:33.351Z,2.24
2023-03-12T19:43:19.540Z,0.87
2023-03-12T19:46:05.164Z,1.40
2023-03-12T19:48:50.964Z,2.24
2023-03-12T19:51:36.395Z,1.91
2023-03-12T19:54:21.952Z,1.08
2023-03-12T19:57:07.353Z,1.47
2023-03-12T19:59:52.862Z,1.07
2023-03-12T20:02:39.719Z,2.01
2023-03-12T20:05:25.645Z,1.80
2023-03-12T20:08:11.560Z,0.73
2023-03-12T20:11:05.305Z,1.57
2023-03-12T20:13:50.581Z,1.90
2023-03-12T20:16:36.296Z,1.63
2023-03-12T20:19:21.743Z,1.87
2023-03-12T20:22:07.668Z,1.87
2023-03-12T20:24:54.191Z,0.23
2023-03-12T20:27:39.623Z,2.10
2023-03-12T20:30:25.611Z,1.13
2023-03-12T20:33:11.593Z,2.01
2023-03-12T20:35:57.282Z,0.63
2023-03-12T20:38:43.563Z,1.70
2023-03-12T20:41:29.172Z,0.40
2023-03-12T20:44:14.821Z,1.81
2023-03-12T20:47:00.241Z,1.83
2023-03-12T20:49:45.991Z,1.82
2023-03-12T20:52:31.287Z,0.42
2023-03-12T20:55:18.872Z,1.53
2023-03-12T20:58:04.633Z,1.57
2023-03-12T21:00:51.036Z,1.94
2023-03-12T21:03:36.549Z,0.57
2023-03-12T21:06:21.926Z,2.00
2023-03-12T21:09:07.334Z,1.36
2023-03-12T21:11:52.934Z,0.54
2023-03-12T21:14:39.809Z,2.02
2023-03-12T21:17:25.591Z,2.10
2023-03-12T21:20:14.274Z,1.00
2023-03-12T21:23:00.952Z,2.09
2023-03-12T21:25:46.413Z,1.39
2023-03-12T21:28:32.159Z,0.68
2023-03-12T21:31:18.391Z,0.67
2023-03-12T21:34:03.759Z,2.00
2023-03-12T21:36:49.123Z,1.30
2023-03-12T21:39:34.925Z,1.72
2023-03-12T21:42:21.232Z,0.33
2023-03-12T21:45:07.959Z,1.23
2023-03-12T21:47:54.029Z,0.58
2023-03-12T21:50:39.351Z,0.47
2023-03-12T21:53:24.688Z,1.89
2023-03-12T21:56:11.006Z,0.63
2023-03-12T21:58:57.297Z,0.48
2023-03-12T22:01:43.155Z,1.54
2023-03-12T22:04:28.997Z,1.80
2023-03-12T22:07:14.526Z,1.34
2023-03-12T22:10:00.462Z,1.65
2023-03-12T22:12:46.506Z,1.65
2023-03-12T22:15:31.936Z,1.27
2023-03-12T22:18:17.451Z,1.59
2023-03-12T22:21:05.150Z,0.25
2023-03-12T22:23:52.829Z,1.49
2023-03-12T22:26:38.194Z,1.50
2023-03-12T22:29:23.550Z,1.61
2023-03-12T22:32:09.180Z,1.49
2023-03-12T22:34:54.522Z,1.48
2023-03-12T22:37:40.035Z,0.33
2023-03-12T22:40:25.871Z,1.71
2023-03-12T22:43:11.052Z,1.05
2023-03-12T22:45:56.469Z,1.59
2023-03-12T22:48:46.035Z,0.89
2023-03-12T22:51:33.049Z,1.49
2023-03-12T22:54:18.642Z,1.30
2023-03-12T22:57:03.957Z,0.20
2023-03-12T22:59:49.231Z,1.43
2023-03-12T23:02:35.354Z,1.46
2023-03-12T23:05:20.737Z,1.10
2023-03-12T23:08:06.234Z,1.22
2023-03-12T23:11:00.717Z,0.88
2023-03-12T23:13:48.263Z,1.37
2023-03-12T23:16:34.089Z,-0.11
2023-03-12T23:19:20.657Z,1.25
2023-03-12T23:22:07.074Z,0.15
2023-03-12T23:24:53.244Z,0.13
2023-03-12T23:27:38.640Z,0.34
2023-03-12T23:30:23.921Z,1.28
2023-03-12T23:33:09.286Z,0.34
2023-03-12T23:35:58.762Z,1.30
2023-03-12T23:38:45.235Z,1.08
2023-03-12T23:41:30.606Z,0.04
2023-03-12T23:44:16.235Z,1.31
2023-03-12T23:47:01.729Z,-0.14
2023-03-12T23:49:47.677Z,1.21
2023-03-12T23:52:33.255Z,0.93
2023-03-12T23:55:18.555Z,1.07
2023-03-12T23:58:04.092Z,0.47
